• Join FlightAware (Why Join?)
  • Login
  • US Flag 
01:52PM EDT


 

Airport Tracker/Info


-or-


 

Live Flight TrackerFlight Track Log ✈ GJS3618 ✈ 11-Apr-2013 ✈ KORD - KALB

Flight Track Log - Related Links

Times and Time Zones

All times are in EDT time to prevent confusion due to time zone crossing. See the GJS3618 flight status page for this flight to view local times or setup timezone preferences in your user account.

Time Position Orientation Groundspeed Altitude Reporting Facility
EDT Latitude Longitude Course Direction KTS MPH feet Rate Location/Type
09:16AM 42.0000 -87.8833 20° North 142 163 2,300  Level Chicago TRACON
09:17AM 42.0667 -87.8500 20° North 245 282 4,200 840 Climbing Chicago TRACON
09:19AM 42.1150 -87.6725 70° East 285 328 5,000 960 Climbing Chicago Center
09:20AM 42.1278 -87.5672 81° East 285 328 7,200 2,580 Climbing Chicago Center
09:21AM 42.1467 -87.4583 77° East 303 349 10,400 2,580 Climbing Chicago Center
09:22AM 42.1911 -87.3233 66° East 332 382 12,600 1,860 Climbing Chicago Center
09:23AM 42.2353 -87.1925 65° Northeast 378 435 14,300 1,800 Climbing Chicago Center
09:24AM 42.2786 -87.0525 67° East 401 461 16,400 2,160 Climbing Chicago Center
09:25AM 42.2856 -86.8958 87° East 417 480 18,800 2,040 Climbing Chicago Center
09:26AM 42.2914 -86.7403 87° East 418 481 20,700 1,680 Climbing Chicago Center
09:27AM 42.2992 -86.5522 87° East 448 516 22,300 1,560 Climbing Chicago Center
09:28AM 42.3058 -86.3869 87° East 465 535 23,900 1,560 Climbing Chicago Center
09:29AM 42.3128 -86.2100 87° East 474 545 25,500 1,740 Climbing Chicago Center
09:30AM 42.3161 -86.0356 88° East 472 543 27,600 2,040 Climbing Chicago Center
09:31AM 42.2717 -85.8508 108° East 435 501 29,800 1,560 Climbing Chicago Center
09:32AM 42.2536 -85.6889 99° East 449 517 30,800 780 Climbing Chicago Center
09:34AM 42.2606 -85.5125 87° East 471 542 31,500 720 Climbing Chicago Center
09:35AM 42.2694 -85.3036 87° East 506 582 32,500 2,520 Climbing Cleveland Center
09:36AM 42.2792 -85.1161 86° East 506 582 37,000 1,200 Climbing Cleveland Center
09:37AM 42.2989 -84.9267 82° East 506 582 34,900 -1,020 Descending Cleveland Center
09:38AM 42.3142 -84.7422 84° East 501 577 35,000  Climbing Cleveland Center
09:39AM 42.3272 -84.5492 85° East 501 577 35,000 120 Level Cleveland Center
09:40AM 42.3419 -84.3561 84° East 501 577 35,300 600 Climbing Cleveland Center
09:41AM 42.3606 -84.1633 82° East 506 582 36,200 840 Climbing Cleveland Center
09:42AM 42.3769 -83.9703 83° East 511 588 37,000 360 Climbing Cleveland Center
09:43AM 42.3931 -83.7742 84° East 517 595 37,000  Level Cleveland Center
09:44AM 42.4092 -83.5614 84° East 517 595 37,000  Level Cleveland Center
09:45AM 42.4161 -83.3703 87° East 511 588 37,000  Level Cleveland Center
09:46AM 42.4222 -83.1933 87° East 511 588 37,000  Level Cleveland Center
09:47AM 42.4289 -82.9828 87° East 516 594 37,000  Level Cleveland Center
09:48AM 42.4350 -82.7889 87° East 516 594 37,000  Level Cleveland Center
09:49AM 42.4406 -82.5919 88° East 516 594 37,000  Level Cleveland Center
09:50AM 42.4458 -82.3981 88° East 516 594 37,000  Level Cleveland Center
09:51AM 42.4508 -82.2011 88° East 516 594 37,000  Level Cleveland Center
09:52AM 42.4575 -82.0072 87° East 516 594 37,000  Level Cleveland Center
09:53AM 42.4619 -81.8131 88° East 516 594 37,000  Level Cleveland Center
09:54AM 42.4658 -81.6386 88° East 510 587 37,000  Level Cleveland Center
09:55AM 42.4694 -81.4444 88° East 511 588 37,000  Level Cleveland Center
09:56AM 42.4750 -81.2333 88° East 511 588 37,000  Level Cleveland Center
09:57AM 42.4781 -81.0419 89° East 517 595 37,000  Level Cleveland Center
09:58AM 42.4808 -80.8450 89° East 517 595 37,000  Level Cleveland Center
09:59AM 42.4831 -80.6536 89° East 509 586 37,000  Level Cleveland Center
10:00AM 42.4853 -80.4819 89° East 509 586 37,000  Level Cleveland Center
10:01AM 42.4869 -80.2903 89° East 514 592 37,000  Level Cleveland Center
10:02AM 42.4883 -80.0961 89° East 514 592 37,000  Level Cleveland Center
10:03AM 42.4917 -79.9017 89° East 514 592 37,000  Level Cleveland Center
10:04AM 42.4922 -79.7075 90° East 514 592 37,000  Level Cleveland Center
10:05AM 42.4928 -79.5131 90° East 514 592 37,000  Level Cleveland Center
10:06AM 42.4908 -79.3217 91° East 514 592 37,000  Level Cleveland Center
10:07AM 42.5031 -79.1272 85° East 514 592 37,000 -120 Level Cleveland Center
10:08AM 42.5172 -78.9325 84° East 514 592 36,800 -600 Descending Cleveland Center
10:09AM 42.5311 -78.7461 84° East 514 592 35,800 -1,020 Descending Cleveland Center
10:10AM 42.5403 -78.5569 86° East 514 592 34,800 -1,020 Descending Cleveland Center
10:11AM 42.5536 -78.3678 84° East 503 579 33,800 -900 Descending Cleveland Center
10:12AM 42.5644 -78.1783 85° East 503 579 33,000 -780 Descending Cleveland Center
10:13AM 42.5750 -77.9919 86° East 498 573 32,300 -960 Descending Cleveland Center
10:14AM 42.5892 -77.7911 84° East 498 573 31,100 -1,140 Descending Cleveland Center
10:15AM 42.5989 -77.6072 86° East 493 567 30,100 -960 Descending Cleveland Center
10:16AM 42.6086 -77.4233 86° East 488 562 29,200 -420 Descending Cleveland Center
10:18AM 42.6253 -77.1111 86° East 486 559 29,000 -120 Descending Boston Center
10:19AM 42.6331 -76.9194 87° East 497 572 29,000  Level Boston Center
10:20AM 42.6447 -76.7256 85° East 504 580 29,000  Level Boston Center
10:21AM 42.6553 -76.4975 86° East 509 586 29,000  Level Boston Center
10:22AM 42.6639 -76.3117 86° East 509 586 29,000 -1,020 Level Boston Center
10:23AM 42.6750 -76.0975 86° East 509 586 27,100 -1,980 Descending Boston Center
10:24AM 42.6808 -75.9114 87° East 509 586 25,100 -2,160 Descending Boston Center
10:25AM 42.6906 -75.7283 86° East 492 566 22,800 -2,220 Descending Boston Center
10:26AM 42.6953 -75.5561 88° East 470 541 20,700 -2,040 Descending Boston Center
10:27AM 42.7017 -75.3983 87° East 448 516 18,800 -1,680 Descending Boston Center
10:28AM 42.7081 -75.2319 87° East 433 498 17,400 -1,440 Descending Boston Center
10:29AM 42.7139 -75.0653 87° East 433 498 15,900 -1,560 Descending Boston Center
10:30AM 42.7050 -74.9125 94° East 427 491 14,400 -1,560 Descending Boston Center
10:31AM 42.6681 -74.7839 111° Southeast 406 467 13,000 -1,560 Descending Boston Center
10:31AM 42.6469 -74.6956 108° East 403 464 12,100 -1,440 Descending Boston Center
10:32AM 42.6275 -74.6214 110° East 415 478 11,400 -1,140 Descending Boston Center
10:32AM 42.6119 -74.5561 108° East 388 447 11,000 -540 Descending Boston Center
10:33AM 42.5986 -74.4850 104° East 384 442 10,900 -540 Descending Boston Center
10:33AM 42.5936 -74.4228 96° East 356 410 10,500 -1,140 Descending Boston Center
10:34AM 42.5886 -74.3550 96° East 362 417 9,800 -1,620 Descending Boston Center
10:34AM 42.5853 -74.2928 94° East 332 382 8,900 -1,680 Descending Boston Center
10:35AM 42.5800 -74.2306 97° East 340 391 8,100 -1,260 Descending Boston Center
10:35AM 42.5769 -74.1628 93° East 323 372 7,500 -900 Descending Boston Center
10:36AM 42.5753 -74.1403 96° East 319 367 7,300 -900 Descending Boston Center
10:36AM 42.5703 -74.0556 95° East 250 288 6,600 -1,200 Descending Boston Center
10:37AM 42.5706 -74.0300 89° East 278 320 6,100 -1,680 Descending Boston Center
10:37AM 42.5422 -73.9814 128° Southeast 226 260 4,900 -1,800 Descending Boston Center
10:38AM 42.5278 -73.9614 134° Southeast 221 254 4,300 -780 Descending Boston Center
10:38AM 42.4928 -73.9297 146° Southeast 217 250 4,100 -300 Descending Boston Center
10:39AM 42.4847 -73.9153 127° Southeast 215 247 4,000 -1,200 Descending Boston Center
10:40AM 42.4917 -73.8450 82° East 170 196 2,600 -840 Descending Boston Center
10:40AM 42.5233 -73.8261 24° Northeast 164 189 2,600 -240 Level Boston Center
10:42AM 42.5694 -73.8075 17° North 153 176 2,200 -300 Descending Boston Center
10:43AM 42.6131 -73.8056 North 157 181 2,000 7,620 Descending Boston Center
10:44AM 42.6550 -73.7783 26° Northeast 153 176 18,000 -360 Climbing Boston Center
10:45AM 42.6903 -73.8044 331° Northwest 120 138 1,300 -9,000 Descending Boston Center
10:46AM 42.7256 -73.8053 359° North 113 130 700 -660 Descending Boston Center